YTEF/TEF METAR and TAF weather

Enter ICAO airport designator
Station Type Date Time Source
YTEF METAR 2018/12/11 22:00 UTC NOAA

YTEF 112200Z AUTO 17015KT 9999 // NCD 32/01 Q1007


Station Type Date Time Source
YTEF Decoded METAR 2018/12/11 22:00 UTC NOAA

Station name not available
Dec 11, 2018 - 05:00 PM EST / 2018.12.11 2200 UTC
Wind: from the S (170 degrees) at 17 MPH (15 KT):0
Visibility: greater than 7 mile(s):0
Temperature: 89 F (32 C)
Dew Point: 33 F (1 C)
Relative Humidity: 13%
Pressure (altimeter): 29.74 in. Hg (1007 hPa)
ob: YTEF 112200Z AUTO 17015KT 9999 // NCD 32/01 Q1007
cycle: 22

Station Type Date Time Source
YTEF TAF 2017/06/24 02:03 UTC NOAA

TAF TAF YTEF 240051Z 2402/2414 12005KT CAVOK
FM240500 33005KT 9999 -SHRA SCT060 BKN100


Example: see airport list